createdAt,value
2018-11-23T00:00:24.000Z,26
2018-11-23T00:01:24.000Z,26
2018-11-23T00:03:24.000Z,26
2018-11-23T00:04:24.000Z,26
2018-11-23T00:06:24.000Z,26
2018-11-23T00:08:09.000Z,26
2018-11-23T00:09:24.000Z,26
2018-11-23T00:11:09.000Z,25.9
2018-11-23T00:12:24.000Z,25.8
2018-11-23T00:14:24.000Z,25.8
2018-11-23T00:16:24.000Z,25.7
2018-11-23T00:18:24.000Z,25.7
2018-11-23T00:19:24.000Z,25.7
2018-11-23T00:21:24.000Z,25.7
2018-11-23T00:22:24.000Z,25.8
2018-11-23T00:24:24.000Z,25.8
2018-11-23T00:26:24.000Z,25.8
2018-11-23T00:28:24.000Z,25.7
2018-11-23T00:29:24.000Z,25.8
2018-11-23T00:31:24.000Z,25.7
2018-11-23T00:32:24.000Z,25.7
2018-11-23T00:34:24.000Z,25.8
2018-11-23T00:35:24.000Z,25.8
2018-11-23T00:36:24.000Z,25.9
2018-11-23T00:38:24.000Z,26
2018-11-23T00:39:24.000Z,26
2018-11-23T00:41:24.000Z,26
2018-11-23T00:42:24.000Z,26
2018-11-23T00:44:24.000Z,26
2018-11-23T00:45:24.000Z,26
2018-11-23T00:47:24.000Z,26
2018-11-23T00:48:24.000Z,26
2018-11-23T00:50:24.000Z,26
2018-11-23T00:51:24.000Z,26.1
2018-11-23T00:53:24.000Z,26.1
2018-11-23T00:54:24.000Z,26
2018-11-23T00:55:24.000Z,26.1
2018-11-23T00:56:24.000Z,26.1
2018-11-23T00:58:24.000Z,26
2018-11-23T00:59:24.000Z,26
2018-11-23T01:01:24.000Z,26
2018-11-23T01:03:24.000Z,26
2018-11-23T01:05:24.000Z,26
2018-11-23T01:07:08.000Z,25.9
2018-11-23T01:08:24.000Z,25.9
2018-11-23T01:10:24.000Z,25.8
2018-11-23T01:12:24.000Z,25.7
2018-11-23T01:14:08.000Z,25.7
2018-11-23T01:15:24.000Z,25.7
2018-11-23T01:16:24.000Z,25.7
2018-11-23T01:18:24.000Z,25.8
2018-11-23T01:20:24.000Z,25.8
2018-11-23T01:22:24.000Z,25.8
2018-11-23T01:24:24.000Z,25.8
2018-11-23T01:25:24.000Z,25.8
2018-11-23T01:27:24.000Z,25.9
2018-11-23T01:29:24.000Z,25.9
2018-11-23T01:30:24.000Z,25.9
2018-11-23T01:32:24.000Z,25.9
2018-11-23T01:34:24.000Z,25.9
2018-11-23T01:36:08.000Z,25.9
2018-11-23T01:37:24.000Z,25.9
2018-11-23T01:38:24.000Z,25.9
2018-11-23T01:40:24.000Z,25.9
2018-11-23T01:41:24.000Z,25.9
2018-11-23T01:43:24.000Z,25.9
2018-11-23T01:45:24.000Z,25.9
2018-11-23T01:46:24.000Z,25.9
2018-11-23T01:47:24.000Z,26
2018-11-23T01:49:24.000Z,26
2018-11-23T01:51:24.000Z,26
2018-11-23T01:53:24.000Z,25.9
2018-11-23T01:55:24.000Z,25.8
2018-11-23T01:56:24.000Z,25.8
2018-11-23T01:58:24.000Z,25.9
2018-11-23T01:59:24.000Z,25.9
2018-11-23T02:01:09.000Z,26
2018-11-23T02:02:24.000Z,25.9
2018-11-23T02:03:24.000Z,25.9
2018-11-23T02:04:24.000Z,26
2018-11-23T02:06:24.000Z,26
2018-11-23T02:07:24.000Z,26
2018-11-23T02:09:24.000Z,26
2018-11-23T02:11:24.000Z,26
2018-11-23T02:12:24.000Z,26
2018-11-23T02:13:24.000Z,26
2018-11-23T02:15:24.000Z,26.1
2018-11-23T02:17:24.000Z,26
2018-11-23T02:19:24.000Z,25.9
2018-11-23T02:20:24.000Z,25.9
2018-11-23T02:22:09.000Z,26
2018-11-23T02:23:24.000Z,25.9
2018-11-23T02:25:24.000Z,25.8
2018-11-23T02:26:24.000Z,25.8
2018-11-23T02:28:24.000Z,25.8
2018-11-23T02:30:24.000Z,25.8
2018-11-23T02:32:24.000Z,25.8
2018-11-23T02:33:24.000Z,25.8
2018-11-23T02:35:24.000Z,25.8
2018-11-23T02:36:24.000Z,25.8
2018-11-23T02:38:24.000Z,25.9
2018-11-23T02:39:24.000Z,25.9
2018-11-23T02:41:24.000Z,26
2018-11-23T02:42:24.000Z,26
2018-11-23T02:44:24.000Z,26
2018-11-23T02:45:24.000Z,26
2018-11-23T02:47:24.000Z,26
2018-11-23T02:48:24.000Z,26
2018-11-23T02:50:24.000Z,26
2018-11-23T02:51:24.000Z,26
2018-11-23T02:53:24.000Z,26
2018-11-23T02:55:24.000Z,26
2018-11-23T02:56:24.000Z,26
2018-11-23T02:58:24.000Z,26
2018-11-23T03:00:24.000Z,25.9
2018-11-23T03:01:24.000Z,25.9
2018-11-23T03:03:24.000Z,25.9
2018-11-23T03:04:24.000Z,25.9
2018-11-23T03:06:24.000Z,26
2018-11-23T03:07:24.000Z,26
2018-11-23T03:08:24.000Z,26
2018-11-23T03:10:24.000Z,26.1
2018-11-23T03:11:24.000Z,26.1
2018-11-23T03:12:24.000Z,26.1
2018-11-23T03:13:24.000Z,26.1
2018-11-23T03:14:24.000Z,26.1
2018-11-23T03:16:24.000Z,26.1
2018-11-23T03:18:08.000Z,26
2018-11-23T03:19:24.000Z,26
2018-11-23T03:20:24.000Z,26
2018-11-23T03:21:24.000Z,26
2018-11-23T03:23:24.000Z,26
2018-11-23T03:24:24.000Z,26
2018-11-23T03:25:24.000Z,26
2018-11-23T03:27:24.000Z,26
2018-11-23T03:28:24.000Z,26
2018-11-23T03:30:24.000Z,25.9
2018-11-23T03:32:24.000Z,25.8
2018-11-23T03:33:24.000Z,25.8
2018-11-23T03:35:24.000Z,25.8
2018-11-23T03:36:24.000Z,25.8
2018-11-23T03:38:24.000Z,25.7
2018-11-23T03:40:24.000Z,25.7
2018-11-23T03:42:24.000Z,25.7
2018-11-23T03:43:24.000Z,25.6
2018-11-23T03:45:24.000Z,25.7
2018-11-23T03:46:24.000Z,25.7
2018-11-23T03:47:24.000Z,25.8
2018-11-23T03:49:24.000Z,25.9
2018-11-23T03:50:24.000Z,25.9
2018-11-23T03:52:08.000Z,26
2018-11-23T03:53:24.000Z,26
2018-11-23T03:55:24.000Z,25.9
2018-11-23T03:57:24.000Z,25.9
2018-11-23T03:58:24.000Z,25.9
2018-11-23T04:00:09.000Z,25.9
2018-11-23T04:01:24.000Z,25.8
2018-11-23T04:02:24.000Z,25.8
2018-11-23T04:04:24.000Z,25.7
2018-11-23T04:06:24.000Z,25.7
2018-11-23T04:07:24.000Z,25.7
2018-11-23T04:08:24.000Z,25.7
2018-11-23T04:10:24.000Z,25.8
2018-11-23T04:11:24.000Z,25.9
2018-11-23T04:13:24.000Z,26
2018-11-23T04:15:24.000Z,26
2018-11-23T04:16:24.000Z,26
2018-11-23T04:18:24.000Z,26
2018-11-23T04:20:24.000Z,26
2018-11-23T04:22:09.000Z,25.9
2018-11-23T04:23:24.000Z,25.9
2018-11-23T04:25:24.000Z,25.9
2018-11-23T04:26:24.000Z,25.9
2018-11-23T04:28:24.000Z,25.9
2018-11-23T04:29:24.000Z,26
2018-11-23T04:31:24.000Z,26
2018-11-23T04:33:24.000Z,25.9
2018-11-23T04:35:24.000Z,25.8
2018-11-23T04:37:24.000Z,25.7
2018-11-23T04:39:24.000Z,25.7
2018-11-23T04:40:24.000Z,25.7
2018-11-23T04:41:24.000Z,25.7
2018-11-23T04:43:24.000Z,25.7
2018-11-23T04:44:24.000Z,25.7
2018-11-23T04:46:24.000Z,25.8
2018-11-23T04:47:24.000Z,25.8
2018-11-23T04:49:24.000Z,25.8
2018-11-23T04:50:24.000Z,25.9
2018-11-23T04:51:24.000Z,25.9
2018-11-23T04:53:09.000Z,25.9
2018-11-23T04:54:24.000Z,25.9
2018-11-23T04:56:24.000Z,25.8
2018-11-23T04:58:24.000Z,25.7
2018-11-23T05:00:09.000Z,25.7
2018-11-23T05:01:24.000Z,25.6
2018-11-23T05:02:24.000Z,25.6
2018-11-23T05:04:24.000Z,25.7
2018-11-23T05:05:24.000Z,25.7
2018-11-23T05:07:24.000Z,25.8
2018-11-23T05:08:24.000Z,25.8
2018-11-23T05:09:24.000Z,25.8
2018-11-23T05:10:24.000Z,25.9
2018-11-23T05:12:24.000Z,25.9
2018-11-23T05:14:24.000Z,25.9
2018-11-23T05:15:24.000Z,25.9
2018-11-23T05:17:24.000Z,25.9
2018-11-23T05:18:24.000Z,25.8
2018-11-23T05:20:24.000Z,25.8
2018-11-23T05:21:24.000Z,25.8
2018-11-23T05:22:24.000Z,25.8
2018-11-23T05:24:24.000Z,25.9
2018-11-23T05:25:24.000Z,25.9
2018-11-23T05:27:24.000Z,25.9
2018-11-23T05:28:24.000Z,25.9
2018-11-23T05:30:24.000Z,25.9
2018-11-23T05:32:24.000Z,25.8
2018-11-23T05:33:24.000Z,25.8
2018-11-23T05:34:24.000Z,25.9
2018-11-23T05:36:24.000Z,25.8
2018-11-23T05:38:24.000Z,25.8
2018-11-23T05:39:24.000Z,25.8
2018-11-23T05:40:24.000Z,25.8
2018-11-23T05:42:24.000Z,25.9
2018-11-23T05:43:24.000Z,25.9
2018-11-23T05:45:24.000Z,25.9
2018-11-23T05:47:09.000Z,25.9
2018-11-23T05:48:24.000Z,25.9
2018-11-23T05:50:24.000Z,25.7
2018-11-23T05:51:24.000Z,25.6
2018-11-23T05:52:24.000Z,25.7
2018-11-23T05:54:09.000Z,25.8
2018-11-23T05:55:24.000Z,25.8
2018-11-23T05:57:24.000Z,25.8
2018-11-23T05:59:24.000Z,25.7
2018-11-23T06:01:24.000Z,25.7
2018-11-23T06:03:24.000Z,25.7
2018-11-23T06:04:24.000Z,25.8
2018-11-23T06:06:24.000Z,25.8
2018-11-23T06:08:24.000Z,25.7
2018-11-23T06:09:24.000Z,25.7
2018-11-23T06:10:24.000Z,25.7
2018-11-23T06:12:24.000Z,25.7
2018-11-23T06:14:24.000Z,25.6
2018-11-23T06:15:24.000Z,25.7
2018-11-23T06:17:09.000Z,25.7
2018-11-23T06:18:24.000Z,25.7
2018-11-23T06:19:24.000Z,25.7
2018-11-23T06:21:24.000Z,25.8
2018-11-23T06:23:24.000Z,25.8
2018-11-23T06:24:24.000Z,25.8
2018-11-23T06:26:24.000Z,25.7
2018-11-23T06:28:24.000Z,25.7
2018-11-23T06:30:09.000Z,25.7
2018-11-23T06:31:24.000Z,25.7
2018-11-23T06:32:24.000Z,25.7
2018-11-23T06:34:24.000Z,25.8
2018-11-23T06:35:24.000Z,25.8
2018-11-23T06:37:24.000Z,25.8
2018-11-23T06:39:24.000Z,25.7
2018-11-23T06:40:24.000Z,25.7
2018-11-23T06:42:24.000Z,25.7
2018-11-23T06:44:24.000Z,25.6
2018-11-23T06:45:24.000Z,25.7
2018-11-23T06:47:24.000Z,25.8
2018-11-23T06:49:24.000Z,25.8
2018-11-23T06:51:24.000Z,25.8
2018-11-23T06:52:24.000Z,25.9
2018-11-23T06:53:24.000Z,25.9
2018-11-23T06:55:24.000Z,25.9
2018-11-23T06:56:24.000Z,25.9
2018-11-23T06:58:24.000Z,25.9
2018-11-23T06:59:24.000Z,26
2018-11-23T07:01:24.000Z,26
2018-11-23T07:03:24.000Z,25.9
2018-11-23T07:04:24.000Z,25.9
2018-11-23T07:06:24.000Z,26
2018-11-23T07:08:24.000Z,26
2018-11-23T07:10:24.000Z,26
2018-11-23T07:12:24.000Z,25.9
2018-11-23T07:13:24.000Z,25.9
2018-11-23T07:15:24.000Z,25.9
2018-11-23T07:17:24.000Z,25.9
2018-11-23T07:19:24.000Z,25.8
2018-11-23T07:20:25.000Z,25.9
2018-11-23T07:22:24.000Z,26
2018-11-23T07:23:24.000Z,26
2018-11-23T07:25:24.000Z,26.1
2018-11-23T07:27:24.000Z,26
2018-11-23T07:29:24.000Z,26
2018-11-23T07:31:09.000Z,26
2018-11-23T07:32:24.000Z,26
2018-11-23T07:34:09.000Z,26.1
2018-11-23T07:35:24.000Z,26.1
2018-11-23T07:36:24.000Z,26.2
2018-11-23T07:38:24.000Z,26.4
2018-11-23T07:40:24.000Z,26.4
2018-11-23T07:42:24.000Z,26.5
2018-11-23T07:43:24.000Z,26.5
2018-11-23T07:45:24.000Z,26.6
2018-11-23T07:47:09.000Z,26.7
2018-11-23T07:48:24.000Z,26.7
2018-11-23T07:50:09.000Z,26.8
2018-11-23T07:51:24.000Z,26.8
2018-11-23T07:53:24.000Z,26.9
2018-11-23T07:55:24.000Z,26.9
2018-11-23T07:56:24.000Z,26.9
2018-11-23T07:58:24.000Z,27.1
2018-11-23T08:00:24.000Z,27.2
2018-11-23T08:01:24.000Z,27.2
2018-11-23T08:02:24.000Z,27.3
2018-11-23T08:04:24.000Z,27.5
2018-11-23T08:06:09.000Z,27.5
2018-11-23T08:07:24.000Z,27.6
2018-11-23T08:09:24.000Z,27.6
2018-11-23T08:11:24.000Z,27.6
2018-11-23T08:13:24.000Z,27.6
2018-11-23T08:14:24.000Z,27.6
2018-11-23T08:16:24.000Z,27.6
2018-11-23T08:17:24.000Z,27.5
2018-11-23T08:18:24.000Z,27.5
2018-11-23T08:20:24.000Z,27.5
2018-11-23T08:21:24.000Z,27.5
2018-11-23T08:23:24.000Z,27.4
2018-11-23T08:24:24.000Z,27.4
2018-11-23T08:26:24.000Z,27.4
2018-11-23T08:27:24.000Z,27.4
2018-11-23T08:29:24.000Z,27.4
2018-11-23T08:31:24.000Z,27.3
2018-11-23T08:33:24.000Z,27.2
2018-11-23T08:34:24.000Z,27.2
2018-11-23T08:36:09.000Z,27.2
2018-11-23T08:37:24.000Z,27.2
2018-11-23T08:39:24.000Z,27.2
2018-11-23T08:40:24.000Z,27.2
2018-11-23T08:42:24.000Z,27.3
2018-11-23T08:44:24.000Z,27.2
2018-11-23T08:46:24.000Z,27.2
2018-11-23T08:48:24.000Z,27.2
2018-11-23T08:49:24.000Z,27.2
2018-11-23T08:51:24.000Z,27.2
2018-11-23T08:53:24.000Z,27.1
2018-11-23T08:55:24.000Z,27
2018-11-23T08:57:24.000Z,27
2018-11-23T08:59:24.000Z,26.9
2018-11-23T09:00:24.000Z,27
2018-11-23T09:02:24.000Z,27
2018-11-23T09:03:24.000Z,27.1
2018-11-23T09:05:24.000Z,27.2
2018-11-23T09:07:24.000Z,27.2
2018-11-23T09:09:24.000Z,27.2
2018-11-23T09:11:24.000Z,27.2
2018-11-23T09:12:24.000Z,27.2
2018-11-23T09:13:24.000Z,27.3
2018-11-23T09:15:24.000Z,27.3
2018-11-23T09:17:24.000Z,27.3
2018-11-23T09:18:24.000Z,27.3
2018-11-23T09:20:24.000Z,27.4
2018-11-23T09:21:24.000Z,27.4
2018-11-23T09:22:24.000Z,27.5
2018-11-23T09:23:24.000Z,27.5
2018-11-23T09:25:24.000Z,27.6
2018-11-23T09:26:24.000Z,27.6
2018-11-23T09:28:09.000Z,27.6
2018-11-23T09:29:24.000Z,27.6
2018-11-23T09:30:24.000Z,27.6
2018-11-23T09:31:24.000Z,27.7
2018-11-23T09:33:24.000Z,27.7
2018-11-23T09:35:24.000Z,27.6
2018-11-23T09:37:24.000Z,27.5
2018-11-23T09:39:24.000Z,27.5
2018-11-23T09:40:24.000Z,27.5
2018-11-23T09:42:24.000Z,27.6
2018-11-23T09:44:25.000Z,27.5
2018-11-23T09:46:24.000Z,27.5
2018-11-23T09:48:24.000Z,27.5
2018-11-23T09:49:24.000Z,27.5
2018-11-23T09:51:24.000Z,27.5
2018-11-23T09:53:24.000Z,27.5
2018-11-23T09:55:24.000Z,27.6
2018-11-23T09:56:24.000Z,27.6
2018-11-23T09:58:24.000Z,27.7
2018-11-23T10:00:24.000Z,27.6
2018-11-23T10:02:24.000Z,27.6
2018-11-23T10:04:24.000Z,27.6
2018-11-23T10:06:24.000Z,27.6
2018-11-23T10:08:09.000Z,27.6
2018-11-23T10:09:24.000Z,27.5
2018-11-23T10:11:10.000Z,27.6
2018-11-23T10:13:24.000Z,27.5
2018-11-23T10:14:24.000Z,27.5
2018-11-23T10:16:24.000Z,27.6
2018-11-23T10:17:24.000Z,27.6
2018-11-23T10:19:24.000Z,27.7
2018-11-23T10:21:24.000Z,27.7
2018-11-23T10:23:24.000Z,27.7
2018-11-23T10:24:24.000Z,27.8
2018-11-23T10:26:24.000Z,27.9
2018-11-23T10:27:24.000Z,27.9
2018-11-23T10:29:24.000Z,28
2018-11-23T10:31:24.000Z,28
2018-11-23T10:32:24.000Z,27.9
2018-11-23T10:33:24.000Z,27.9
2018-11-23T10:35:24.000Z,27.9
2018-11-23T10:36:24.000Z,28
2018-11-23T10:38:24.000Z,28
2018-11-23T10:39:24.000Z,28
2018-11-23T10:41:24.000Z,28.1
2018-11-23T10:42:24.000Z,28.1
2018-11-23T10:44:24.000Z,28.2
2018-11-23T10:45:24.000Z,28.2
2018-11-23T10:46:24.000Z,28.3
2018-11-23T10:47:24.000Z,28.3
2018-11-23T10:49:24.000Z,28.4
2018-11-23T10:51:24.000Z,28.3
2018-11-23T10:52:24.000Z,28.3
2018-11-23T10:54:24.000Z,28.3
2018-11-23T10:56:24.000Z,28.3
2018-11-23T10:58:24.000Z,28.2
2018-11-23T11:00:24.000Z,28.1
2018-11-23T11:01:24.000Z,28.1
2018-11-23T11:03:24.000Z,28.1
2018-11-23T11:05:24.000Z,28.2
2018-11-23T11:07:24.000Z,28.2
2018-11-23T11:08:24.000Z,28.3
2018-11-23T11:10:24.000Z,28.3
2018-11-23T11:12:24.000Z,28.2
2018-11-23T11:13:24.000Z,28.2
2018-11-23T11:15:24.000Z,28.3
2018-11-23T11:17:24.000Z,28.3
2018-11-23T11:19:09.000Z,28.3
2018-11-23T11:20:24.000Z,28.3
2018-11-23T11:21:24.000Z,28.3
2018-11-23T11:22:24.000Z,28.4
2018-11-23T11:24:24.000Z,28.5
2018-11-23T11:26:24.000Z,28.5
2018-11-23T11:27:24.000Z,28.5
2018-11-23T11:28:24.000Z,28.5
2018-11-23T11:30:24.000Z,28.6
2018-11-23T11:32:24.000Z,28.6
2018-11-23T11:34:24.000Z,28.6
2018-11-23T11:36:24.000Z,28.6
2018-11-23T11:38:24.000Z,28.6
2018-11-23T11:40:24.000Z,28.6
2018-11-23T11:42:24.000Z,28.6
2018-11-23T11:44:24.000Z,28.7
2018-11-23T11:45:24.000Z,28.7
2018-11-23T11:47:09.000Z,28.8
2018-11-23T11:48:24.000Z,28.8
2018-11-23T11:49:24.000Z,28.8
2018-11-23T11:51:24.000Z,29
2018-11-23T11:53:24.000Z,29
2018-11-23T11:54:24.000Z,29
2018-11-23T11:56:24.000Z,29
2018-11-23T11:58:24.000Z,29.1
2018-11-23T12:00:09.000Z,29.1
2018-11-23T12:01:24.000Z,29
2018-11-23T12:03:09.000Z,28.9
2018-11-23T12:04:24.000Z,28.9
2018-11-23T12:05:24.000Z,28.9
2018-11-23T12:07:24.000Z,28.9
2018-11-23T12:08:24.000Z,29
2018-11-23T12:10:24.000Z,29
2018-11-23T12:11:24.000Z,29
2018-11-23T12:12:24.000Z,29
2018-11-23T12:14:24.000Z,29
2018-11-23T12:15:24.000Z,29
2018-11-23T12:17:24.000Z,29
2018-11-23T12:18:24.000Z,29
2018-11-23T12:19:24.000Z,29
2018-11-23T12:20:24.000Z,29
2018-11-23T12:22:24.000Z,29.1
2018-11-23T12:24:24.000Z,29.1
2018-11-23T12:26:24.000Z,29
2018-11-23T12:28:24.000Z,29
2018-11-23T12:30:24.000Z,28.9
2018-11-23T12:31:24.000Z,28.9
2018-11-23T12:32:24.000Z,28.9
2018-11-23T12:34:09.000Z,28.8
2018-11-23T12:35:24.000Z,28.6
2018-11-23T12:37:24.000Z,28.4
2018-11-23T12:39:24.000Z,28.2
2018-11-23T12:40:24.000Z,28.2
2018-11-23T12:42:24.000Z,28.1
2018-11-23T12:43:24.000Z,28
2018-11-23T12:44:24.000Z,28
2018-11-23T12:46:24.000Z,28
2018-11-23T12:48:24.000Z,28
2018-11-23T12:49:24.000Z,27.9
2018-11-23T12:51:09.000Z,27.9
2018-11-23T12:52:24.000Z,27.8
2018-11-23T12:54:09.000Z,27.7
2018-11-23T12:55:24.000Z,27.6
2018-11-23T12:56:24.000Z,27.6
2018-11-23T12:58:24.000Z,27.6
2018-11-23T13:00:09.000Z,27.5
2018-11-23T13:01:24.000Z,27.5
2018-11-23T13:02:24.000Z,27.5
2018-11-23T13:03:24.000Z,27.6
2018-11-23T13:05:24.000Z,27.6
2018-11-23T13:06:24.000Z,27.6
2018-11-23T13:08:24.000Z,27.7
2018-11-23T13:09:24.000Z,27.6
2018-11-23T13:11:24.000Z,27.7
2018-11-23T13:13:24.000Z,27.8
2018-11-23T13:14:24.000Z,27.8
2018-11-23T13:15:24.000Z,27.8
2018-11-23T13:16:24.000Z,27.8
2018-11-23T13:18:24.000Z,27.8
2018-11-23T13:20:24.000Z,27.6
2018-11-23T13:22:24.000Z,27.5
2018-11-23T13:24:08.000Z,27.4
2018-11-23T13:25:24.000Z,27.3
2018-11-23T13:27:24.000Z,27.3
2018-11-23T13:28:24.000Z,27.2
2018-11-23T13:30:24.000Z,27.1
2018-11-23T13:31:24.000Z,27.1
2018-11-23T13:33:24.000Z,27
2018-11-23T13:35:25.000Z,26.9
2018-11-23T13:37:25.000Z,26.8
2018-11-23T13:39:25.000Z,26.7
2018-11-23T13:40:25.000Z,26.7
2018-11-23T13:42:25.000Z,26.7
2018-11-23T13:44:09.000Z,26.7
2018-11-23T13:45:25.000Z,26.7
2018-11-23T13:47:25.000Z,26.7
2018-11-23T13:48:25.000Z,26.7
2018-11-23T13:50:25.000Z,26.7
2018-11-23T13:51:25.000Z,26.8
2018-11-23T13:53:25.000Z,26.9
2018-11-23T13:54:25.000Z,26.9
2018-11-23T13:56:25.000Z,26.9
2018-11-23T13:58:25.000Z,26.8
2018-11-23T13:59:25.000Z,26.8
2018-11-23T14:01:25.000Z,26.8
2018-11-23T14:02:25.000Z,26.8
2018-11-23T14:04:25.000Z,26.8
2018-11-23T14:06:25.000Z,26.8
2018-11-23T14:08:25.000Z,26.8
2018-11-23T14:09:25.000Z,26.8
2018-11-23T14:11:25.000Z,26.8
2018-11-23T14:12:25.000Z,26.8
2018-11-23T14:14:25.000Z,26.8
2018-11-23T14:15:25.000Z,26.8
2018-11-23T14:17:25.000Z,26.7
2018-11-23T14:18:25.000Z,26.6
2018-11-23T14:19:25.000Z,26.6
2018-11-23T14:21:25.000Z,26.6
2018-11-23T14:22:25.000Z,26.6
2018-11-23T14:24:25.000Z,26.5
2018-11-23T14:26:09.000Z,26.5
2018-11-23T14:27:25.000Z,26.4
2018-11-23T14:28:25.000Z,26.4
2018-11-23T14:30:25.000Z,26.4
2018-11-23T14:32:25.000Z,26.3
2018-11-23T14:33:25.000Z,26.3
2018-11-23T14:35:25.000Z,26.2
2018-11-23T14:37:24.000Z,26.1
2018-11-23T14:38:24.000Z,26
2018-11-23T14:40:24.000Z,26
2018-11-23T14:41:24.000Z,25.9
2018-11-23T14:42:24.000Z,25.9
2018-11-23T14:43:24.000Z,25.9
2018-11-23T14:44:24.000Z,25.9
2018-11-23T14:46:24.000Z,25.9
2018-11-23T14:47:24.000Z,25.9
2018-11-23T14:48:24.000Z,25.9
2018-11-23T14:50:24.000Z,25.8
2018-11-23T14:51:24.000Z,25.8
2018-11-23T14:53:24.000Z,25.7
2018-11-23T14:54:24.000Z,25.8
2018-11-23T14:55:24.000Z,25.8
2018-11-23T14:57:24.000Z,25.9
2018-11-23T14:58:24.000Z,26
2018-11-23T14:59:24.000Z,26.1
2018-11-23T15:01:24.000Z,26.2
2018-11-23T15:02:24.000Z,26.2
2018-11-23T15:04:24.000Z,26.3
2018-11-23T15:06:09.000Z,26.3
2018-11-23T15:07:24.000Z,26.3
2018-11-23T15:08:24.000Z,26.3
2018-11-23T15:09:24.000Z,26.4
2018-11-23T15:11:24.000Z,26.4
2018-11-23T15:13:09.000Z,26.4
2018-11-23T15:14:24.000Z,26.4
2018-11-23T15:15:24.000Z,26.4
2018-11-23T15:17:24.000Z,26.5
2018-11-23T15:19:24.000Z,26.5
2018-11-23T15:20:24.000Z,26.5
2018-11-23T15:22:24.000Z,26.5
2018-11-23T15:23:24.000Z,26.5
2018-11-23T15:25:24.000Z,26.6
2018-11-23T15:26:24.000Z,26.6
2018-11-23T15:28:09.000Z,26.7
2018-11-23T15:29:24.000Z,26.6
2018-11-23T15:30:24.000Z,26.6
2018-11-23T15:32:24.000Z,26.7
2018-11-23T15:34:24.000Z,26.7
2018-11-23T15:35:24.000Z,26.7
2018-11-23T15:37:24.000Z,26.7
2018-11-23T15:39:09.000Z,26.6
2018-11-23T15:40:24.000Z,26.5
2018-11-23T15:41:24.000Z,26.6
2018-11-23T15:43:24.000Z,26.5
2018-11-23T15:45:24.000Z,26.5
2018-11-23T15:46:24.000Z,26.5
2018-11-23T15:47:24.000Z,26.5
2018-11-23T15:49:24.000Z,26.6
2018-11-23T15:51:09.000Z,26.5
2018-11-23T15:52:24.000Z,26.5
2018-11-23T15:53:24.000Z,26.5
2018-11-23T15:55:24.000Z,26.5
2018-11-23T15:56:24.000Z,26.5
2018-11-23T15:58:24.000Z,26.5
2018-11-23T16:00:24.000Z,26.5
2018-11-23T16:02:24.000Z,26.4
2018-11-23T16:04:24.000Z,26.4
2018-11-23T16:06:24.000Z,26.3
2018-11-23T16:07:24.000Z,26.3
2018-11-23T16:08:24.000Z,26.4
2018-11-23T16:09:24.000Z,26.4
2018-11-23T16:11:24.000Z,26.5
2018-11-23T16:12:24.000Z,26.5
2018-11-23T16:14:09.000Z,26.6
2018-11-23T16:15:24.000Z,26.5
2018-11-23T16:16:24.000Z,26.5
2018-11-23T16:17:24.000Z,26.6
2018-11-23T16:18:24.000Z,26.7
2018-11-23T16:20:24.000Z,26.8
2018-11-23T16:21:24.000Z,26.8
2018-11-23T16:23:24.000Z,26.8
2018-11-23T16:24:24.000Z,26.8
2018-11-23T16:26:24.000Z,26.8
2018-11-23T16:27:24.000Z,26.8
2018-11-23T16:28:24.000Z,26.9
2018-11-23T16:30:24.000Z,26.9
2018-11-23T16:31:24.000Z,26.9
2018-11-23T16:33:24.000Z,26.9
2018-11-23T16:35:24.000Z,26.9
2018-11-23T16:36:24.000Z,26.9
2018-11-23T16:38:24.000Z,26.9
2018-11-23T16:40:09.000Z,26.9
2018-11-23T16:41:24.000Z,26.8
2018-11-23T16:42:24.000Z,26.8
2018-11-23T16:44:24.000Z,26.8
2018-11-23T16:45:25.000Z,26.8
2018-11-23T16:47:25.000Z,26.8
2018-11-23T16:48:25.000Z,26.8
2018-11-23T16:50:25.000Z,26.8
2018-11-23T16:52:25.000Z,26.8
2018-11-23T16:54:25.000Z,26.8
2018-11-23T16:56:25.000Z,26.7
2018-11-23T16:57:25.000Z,26.7
2018-11-23T16:59:09.000Z,26.7
2018-11-23T17:00:25.000Z,26.6
2018-11-23T17:02:25.000Z,26.6
2018-11-23T17:04:25.000Z,26.6
2018-11-23T17:05:25.000Z,26.6
2018-11-23T17:06:25.000Z,26.7
2018-11-23T17:08:24.000Z,26.6
2018-11-23T17:09:25.000Z,26.6
2018-11-23T17:11:25.000Z,26.6
2018-11-23T17:12:25.000Z,26.6
2018-11-23T17:14:25.000Z,26.7
2018-11-23T17:15:25.000Z,26.7
2018-11-23T17:17:09.000Z,26.8
2018-11-23T17:18:25.000Z,26.8
2018-11-23T17:19:25.000Z,26.8
2018-11-23T17:21:10.000Z,26.8
2018-11-23T17:22:25.000Z,26.8
2018-11-23T17:23:25.000Z,26.8
2018-11-23T17:25:25.000Z,26.8
2018-11-23T17:26:25.000Z,26.9
2018-11-23T17:28:25.000Z,26.9
2018-11-23T17:30:25.000Z,26.9
2018-11-23T17:32:25.000Z,26.8
2018-11-23T17:33:25.000Z,26.8
2018-11-23T17:35:25.000Z,26.8
2018-11-23T17:36:25.000Z,26.8
2018-11-23T17:38:25.000Z,26.9
2018-11-23T17:40:25.000Z,26.9
2018-11-23T17:42:25.000Z,26.8
2018-11-23T17:44:24.000Z,26.8
2018-11-23T17:45:25.000Z,26.7
2018-11-23T17:46:25.000Z,26.8
2018-11-23T17:47:25.000Z,26.8
2018-11-23T17:49:24.000Z,26.9
2018-11-23T17:50:24.000Z,26.9
2018-11-23T17:51:24.000Z,26.9
2018-11-23T17:53:09.000Z,26.9
2018-11-23T17:54:24.000Z,26.9
2018-11-23T17:55:24.000Z,26.9
2018-11-23T17:57:24.000Z,26.9
2018-11-23T17:58:24.000Z,26.9
2018-11-23T18:00:24.000Z,26.9
2018-11-23T18:01:24.000Z,26.9
2018-11-23T18:02:24.000Z,26.9
2018-11-23T18:04:24.000Z,26.9
2018-11-23T18:05:24.000Z,26.9
2018-11-23T18:07:24.000Z,26.9
2018-11-23T18:08:24.000Z,26.8
2018-11-23T18:10:24.000Z,26.8
2018-11-23T18:11:24.000Z,26.9
2018-11-23T18:13:24.000Z,26.9
2018-11-23T18:15:24.000Z,26.8
2018-11-23T18:17:24.000Z,26.8
2018-11-23T18:18:24.000Z,26.8
2018-11-23T18:20:24.000Z,26.8
2018-11-23T18:22:24.000Z,26.8
2018-11-23T18:24:24.000Z,26.8
2018-11-23T18:25:24.000Z,26.8
2018-11-23T18:27:24.000Z,26.8
2018-11-23T18:29:24.000Z,26.8
2018-11-23T18:31:24.000Z,26.8
2018-11-23T18:33:24.000Z,26.8
2018-11-23T18:34:24.000Z,26.8
2018-11-23T18:36:24.000Z,26.8
2018-11-23T18:38:24.000Z,26.7
2018-11-23T18:39:24.000Z,26.6
2018-11-23T18:41:24.000Z,26.7
2018-11-23T18:42:24.000Z,26.7
2018-11-23T18:44:24.000Z,26.8
2018-11-23T18:45:24.000Z,26.8
2018-11-23T18:47:24.000Z,26.9
2018-11-23T18:48:24.000Z,26.9
2018-11-23T18:49:24.000Z,26.9
2018-11-23T18:51:24.000Z,27
2018-11-23T18:53:25.000Z,26.9
2018-11-23T18:55:10.000Z,26.9
2018-11-23T18:56:25.000Z,26.8
2018-11-23T18:57:25.000Z,26.7
2018-11-23T18:59:25.000Z,26.8
2018-11-23T19:00:25.000Z,26.8
2018-11-23T19:02:09.000Z,26.8
2018-11-23T19:03:25.000Z,26.8
2018-11-23T19:04:25.000Z,26.8
2018-11-23T19:06:25.000Z,26.8
2018-11-23T19:08:25.000Z,26.9
2018-11-23T19:09:25.000Z,26.9
2018-11-23T19:10:25.000Z,26.9
2018-11-23T19:11:25.000Z,27
2018-11-23T19:13:25.000Z,27.1
2018-11-23T19:15:25.000Z,27
2018-11-23T19:17:09.000Z,26.8
2018-11-23T19:18:25.000Z,26.7
2018-11-23T19:20:25.000Z,26.6
2018-11-23T19:22:25.000Z,26.6
2018-11-23T19:23:25.000Z,26.6
2018-11-23T19:25:25.000Z,26.8
2018-11-23T19:26:25.000Z,26.8
2018-11-23T19:28:25.000Z,26.7
2018-11-23T19:29:25.000Z,26.7
2018-11-23T19:30:25.000Z,26.8
2018-11-23T19:32:09.000Z,26.8
2018-11-23T19:33:25.000Z,26.8
2018-11-23T19:35:09.000Z,26.8
2018-11-23T19:36:25.000Z,26.8
2018-11-23T19:37:25.000Z,26.8
2018-11-23T19:39:25.000Z,26.9
2018-11-23T19:40:25.000Z,26.9
2018-11-23T19:42:25.000Z,26.9
2018-11-23T19:44:25.000Z,26.9
2018-11-23T19:46:25.000Z,26.9
2018-11-23T19:48:25.000Z,26.9
2018-11-23T19:50:09.000Z,26.9
2018-11-23T19:51:25.000Z,26.8
2018-11-23T19:53:25.000Z,26.8
2018-11-23T19:54:25.000Z,26.8
2018-11-23T19:55:25.000Z,26.8
2018-11-23T19:57:09.000Z,26.9
2018-11-23T19:58:25.000Z,26.8
2018-11-23T20:00:09.000Z,26.9
2018-11-23T20:01:25.000Z,26.8
2018-11-23T20:03:09.000Z,26.8
2018-11-23T20:04:25.000Z,26.8
2018-11-23T20:05:25.000Z,26.8
2018-11-23T20:07:25.000Z,26.9
2018-11-23T20:09:25.000Z,26.7
2018-11-23T20:10:25.000Z,26.7
2018-11-23T20:12:24.000Z,26.7
2018-11-23T20:13:25.000Z,26.8
2018-11-23T20:14:25.000Z,26.8
2018-11-23T20:16:25.000Z,26.8
2018-11-23T20:17:25.000Z,26.8
2018-11-23T20:19:25.000Z,26.8
2018-11-23T20:21:25.000Z,26.8
2018-11-23T20:23:25.000Z,26.8
2018-11-23T20:24:25.000Z,26.8
2018-11-23T20:25:25.000Z,26.8
2018-11-23T20:27:25.000Z,26.8
2018-11-23T20:29:25.000Z,26.8
2018-11-23T20:31:25.000Z,26.7
2018-11-23T20:32:25.000Z,26.7
2018-11-23T20:33:25.000Z,26.7
2018-11-23T20:35:09.000Z,26.8
2018-11-23T20:36:25.000Z,26.7
2018-11-23T20:37:25.000Z,26.7
2018-11-23T20:39:25.000Z,26.8
2018-11-23T20:40:25.000Z,26.8
2018-11-23T20:42:25.000Z,26.8
2018-11-23T20:44:25.000Z,26.8
2018-11-23T20:45:25.000Z,26.8
2018-11-23T20:47:25.000Z,26.7
2018-11-23T20:49:25.000Z,26.7
2018-11-23T20:51:09.000Z,26.7
2018-11-23T20:52:25.000Z,26.6
2018-11-23T20:54:25.000Z,26.6
2018-11-23T20:55:25.000Z,26.6